createdAt,value
2022-10-31T00:01:40.502Z,13.10
2022-10-31T00:04:09.147Z,13.10
2022-10-31T00:06:37.762Z,13.00
2022-10-31T00:09:07.224Z,12.90
2022-10-31T00:11:35.721Z,12.80
2022-10-31T00:14:07.040Z,12.70
2022-10-31T00:16:35.617Z,12.70
2022-10-31T00:19:08.889Z,12.60
2022-10-31T00:21:37.788Z,12.50
2022-10-31T00:24:06.958Z,12.40
2022-10-31T00:26:35.329Z,12.40
2022-10-31T00:29:03.977Z,12.40
2022-10-31T00:31:32.280Z,12.40
2022-10-31T00:34:03.944Z,12.30
2022-10-31T00:36:33.964Z,12.30
2022-10-31T00:39:02.520Z,12.30
2022-10-31T00:41:31.189Z,12.20
2022-10-31T00:43:59.601Z,12.40
2022-10-31T00:46:27.847Z,12.30
2022-10-31T00:48:56.216Z,12.40
2022-10-31T00:51:24.717Z,12.40
2022-10-31T00:53:55.037Z,12.40
2022-10-31T00:56:23.305Z,12.50
2022-10-31T00:58:51.736Z,12.50
2022-10-31T01:01:21.855Z,12.70
2022-10-31T01:03:51.376Z,12.80
2022-10-31T01:06:19.697Z,12.60
2022-10-31T01:08:49.737Z,12.60
2022-10-31T01:11:21.190Z,12.50
2022-10-31T01:13:52.348Z,12.40
2022-10-31T01:16:27.611Z,12.40
2022-10-31T01:18:56.057Z,12.50
2022-10-31T01:21:25.687Z,12.50
2022-10-31T01:23:56.193Z,12.30
2022-10-31T01:26:27.752Z,12.20
2022-10-31T01:28:57.457Z,12.20
2022-10-31T01:31:27.506Z,12.30
2022-10-31T01:33:56.887Z,12.40
2022-10-31T01:36:30.992Z,12.40
2022-10-31T01:39:01.686Z,12.40
2022-10-31T01:41:34.061Z,12.20
2022-10-31T01:44:04.929Z,12.00
2022-10-31T01:46:39.398Z,11.80
2022-10-31T01:49:14.022Z,11.70
2022-10-31T01:51:50.059Z,11.70
2022-10-31T01:54:23.308Z,11.70
2022-10-31T01:56:56.437Z,11.50
2022-10-31T01:59:26.906Z,11.50
2022-10-31T02:01:56.133Z,11.40
2022-10-31T02:04:27.233Z,11.40
2022-10-31T02:07:03.040Z,11.50
2022-10-31T02:09:33.066Z,11.40
2022-10-31T02:12:06.662Z,11.30
2022-10-31T02:14:36.564Z,11.20
2022-10-31T02:17:05.951Z,11.20
2022-10-31T02:19:43.004Z,11.10
2022-10-31T02:22:18.845Z,11.30
2022-10-31T02:25:04.455Z,11.40
2022-10-31T02:28:10.367Z,11.50
2022-10-31T02:30:58.332Z,11.50
2022-10-31T02:33:32.849Z,11.50
2022-10-31T02:36:09.932Z,11.60
2022-10-31T02:38:52.193Z,11.50
2022-10-31T02:41:43.188Z,11.50
2022-10-31T02:44:22.503Z,11.40
2022-10-31T02:46:59.786Z,11.30
2022-10-31T02:49:35.141Z,11.20
2022-10-31T02:52:03.891Z,11.10
2022-10-31T02:54:33.862Z,11.20
2022-10-31T02:57:05.376Z,11.10
2022-10-31T02:59:35.821Z,11.10
2022-10-31T03:02:20.127Z,11.00
2022-10-31T03:05:09.919Z,11.00
2022-10-31T03:07:49.217Z,10.90
2022-10-31T03:10:27.657Z,10.90
2022-10-31T03:13:04.081Z,10.90
2022-10-31T03:15:35.700Z,10.90
2022-10-31T03:18:09.948Z,10.80
2022-10-31T03:20:43.079Z,10.60
2022-10-31T03:23:16.116Z,10.50
2022-10-31T03:25:49.164Z,10.50
2022-10-31T03:28:21.298Z,10.50
2022-10-31T03:30:52.010Z,10.50
2022-10-31T03:33:32.050Z,10.50
2022-10-31T03:36:03.056Z,10.40
2022-10-31T03:38:34.570Z,10.40
2022-10-31T03:41:08.035Z,10.40
2022-10-31T03:43:44.816Z,10.50
2022-10-31T03:46:13.364Z,10.40
2022-10-31T03:48:43.257Z,10.30
2022-10-31T03:51:18.972Z,10.30
2022-10-31T03:53:53.439Z,10.30
2022-10-31T03:56:32.226Z,10.30
2022-10-31T03:59:04.629Z,10.30
2022-10-31T04:01:36.945Z,10.40
2022-10-31T04:04:08.935Z,10.40
2022-10-31T04:06:40.789Z,10.50
2022-10-31T04:09:11.836Z,10.50
2022-10-31T04:11:46.864Z,10.40
2022-10-31T04:14:51.608Z,10.40
2022-10-31T04:17:23.579Z,10.40
2022-10-31T04:19:53.880Z,10.30
2022-10-31T04:22:22.610Z,10.30
2022-10-31T04:24:51.058Z,10.30
2022-10-31T04:27:20.324Z,10.20
2022-10-31T04:29:50.818Z,10.20
2022-10-31T04:32:19.992Z,10.20
2022-10-31T04:34:48.478Z,10.20
2022-10-31T04:37:18.345Z,10.20
2022-10-31T04:39:46.786Z,10.20
2022-10-31T04:42:47.445Z,10.30
2022-10-31T04:45:20.076Z,10.30
2022-10-31T04:47:52.745Z,10.50
2022-10-31T04:50:21.285Z,10.50
2022-10-31T04:52:51.637Z,10.40
2022-10-31T04:55:25.502Z,10.30
2022-10-31T04:58:23.439Z,10.30
2022-10-31T05:00:55.322Z,10.40
2022-10-31T05:03:23.925Z,10.30
2022-10-31T05:05:52.580Z,10.30
2022-10-31T05:08:22.464Z,10.20
2022-10-31T05:10:53.972Z,10.10
2022-10-31T05:13:23.542Z,10.00
2022-10-31T05:16:12.141Z,10.00
2022-10-31T05:19:00.534Z,9.90
2022-10-31T05:21:47.874Z,9.90
2022-10-31T05:24:18.112Z,9.90
2022-10-31T05:26:49.681Z,9.80
2022-10-31T05:29:18.700Z,9.80
2022-10-31T05:31:47.374Z,9.80
2022-10-31T05:34:35.832Z,9.80
2022-10-31T05:37:27.578Z,9.80
2022-10-31T05:39:58.893Z,9.80
2022-10-31T05:42:28.832Z,9.90
2022-10-31T05:44:57.242Z,9.90
2022-10-31T05:47:40.140Z,9.80
2022-10-31T05:50:46.940Z,9.90
2022-10-31T05:53:16.020Z,9.90
2022-10-31T05:55:46.380Z,9.90
2022-10-31T05:58:19.273Z,10.00
2022-10-31T06:00:58.702Z,10.00
2022-10-31T06:03:27.174Z,9.90
2022-10-31T06:05:58.389Z,9.90
2022-10-31T06:08:32.429Z,9.90
2022-10-31T06:11:07.048Z,9.90
2022-10-31T06:14:11.020Z,9.80
2022-10-31T06:17:05.425Z,9.70
2022-10-31T06:22:22.714Z,9.60
2022-10-31T06:24:51.500Z,9.60
2022-10-31T06:27:29.558Z,9.60
2022-10-31T06:29:59.692Z,9.60
2022-10-31T06:32:36.741Z,9.60
2022-10-31T06:35:05.756Z,9.60
2022-10-31T06:37:36.104Z,9.60
2022-10-31T06:40:16.006Z,9.60
2022-10-31T06:43:12.207Z,9.60
2022-10-31T06:45:41.652Z,9.60
2022-10-31T06:48:19.511Z,9.70
2022-10-31T06:51:07.195Z,9.70
2022-10-31T06:53:35.980Z,9.70
2022-10-31T06:56:06.457Z,9.70
2022-10-31T06:58:41.499Z,9.70
2022-10-31T07:01:11.684Z,9.70
2022-10-31T07:03:41.020Z,9.70
2022-10-31T07:06:10.004Z,9.80
2022-10-31T07:08:40.144Z,9.80
2022-10-31T07:11:09.177Z,9.80
2022-10-31T07:13:38.022Z,9.90
2022-10-31T07:16:13.056Z,9.90
2022-10-31T07:18:42.105Z,9.80
2022-10-31T07:21:11.181Z,9.90
2022-10-31T07:23:39.904Z,9.90
2022-10-31T07:26:27.213Z,9.90
2022-10-31T07:28:55.817Z,10.00
2022-10-31T07:31:28.597Z,10.00
2022-10-31T07:34:01.780Z,10.00
2022-10-31T07:36:30.281Z,10.10
2022-10-31T07:39:04.443Z,10.10
2022-10-31T07:41:36.147Z,10.20
2022-10-31T07:44:04.700Z,10.30
2022-10-31T07:46:49.818Z,10.30
2022-10-31T07:49:41.600Z,10.40
2022-10-31T07:52:29.223Z,10.50
2022-10-31T07:55:14.701Z,10.60
2022-10-31T07:57:48.904Z,10.70
2022-10-31T08:00:18.309Z,10.90
2022-10-31T08:02:59.958Z,11.00
2022-10-31T08:05:54.445Z,11.00
2022-10-31T08:08:38.402Z,11.10
2022-10-31T08:11:24.485Z,11.30
2022-10-31T08:14:02.301Z,11.40
2022-10-31T08:16:36.421Z,11.50
2022-10-31T08:19:12.820Z,11.70
2022-10-31T08:21:47.563Z,11.80
2022-10-31T08:24:24.241Z,12.00
2022-10-31T08:26:54.208Z,12.20
2022-10-31T08:29:24.109Z,12.40
2022-10-31T08:31:54.102Z,12.50
2022-10-31T08:34:42.761Z,12.60
2022-10-31T08:37:30.089Z,12.80
2022-10-31T08:39:59.063Z,13.00
2022-10-31T08:42:28.389Z,13.10
2022-10-31T08:44:57.193Z,13.20
2022-10-31T08:47:26.607Z,13.40
2022-10-31T08:49:57.788Z,13.50
2022-10-31T08:52:50.945Z,13.70
2022-10-31T08:55:17.037Z,13.80
2022-10-31T08:57:48.758Z,14.00
2022-10-31T09:00:18.609Z,14.10
2022-10-31T09:03:00.183Z,14.30
2022-10-31T09:05:33.374Z,14.40
2022-10-31T09:08:03.688Z,14.50
2022-10-31T09:10:34.539Z,14.60
2022-10-31T09:13:08.589Z,14.70
2022-10-31T09:15:56.568Z,14.80
2022-10-31T09:18:29.199Z,15.00
2022-10-31T09:21:03.309Z,15.10
2022-10-31T09:23:33.387Z,15.40
2022-10-31T09:26:03.839Z,15.50
2022-10-31T09:28:39.156Z,15.70
2022-10-31T09:31:11.558Z,15.90
2022-10-31T09:34:01.136Z,16.00
2022-10-31T09:36:41.148Z,16.30
2022-10-31T09:39:14.130Z,16.60
2022-10-31T09:42:08.575Z,16.70
2022-10-31T09:44:56.106Z,16.80
2022-10-31T09:47:44.021Z,16.90
2022-10-31T09:50:43.726Z,17.10
2022-10-31T09:53:42.215Z,17.20
2022-10-31T09:56:16.413Z,17.50
2022-10-31T09:58:48.677Z,17.70
2022-10-31T10:01:45.793Z,18.10
2022-10-31T10:04:37.504Z,18.30
2022-10-31T10:07:44.425Z,18.60
2022-10-31T10:10:33.809Z,18.90
2022-10-31T10:13:15.488Z,18.90
2022-10-31T10:15:57.153Z,18.90
2022-10-31T10:18:35.151Z,19.00
2022-10-31T10:21:13.687Z,19.00
2022-10-31T10:23:57.261Z,18.90
2022-10-31T10:26:36.480Z,19.00
2022-10-31T10:29:30.459Z,19.30
2022-10-31T10:32:03.717Z,19.60
2022-10-31T10:34:37.420Z,19.80
2022-10-31T10:37:11.256Z,19.90
2022-10-31T10:39:44.416Z,19.80
2022-10-31T10:42:34.101Z,19.60
2022-10-31T10:45:26.060Z,19.60
2022-10-31T10:48:09.355Z,19.60
2022-10-31T10:50:42.253Z,19.90
2022-10-31T10:53:33.567Z,20.10
2022-10-31T10:56:14.206Z,20.30
2022-10-31T10:58:46.407Z,20.60
2022-10-31T11:01:17.016Z,21.00
2022-10-31T11:03:46.139Z,21.20
2022-10-31T11:06:26.764Z,21.20
2022-10-31T11:08:56.276Z,21.20
2022-10-31T11:11:33.706Z,21.00
2022-10-31T11:14:07.975Z,21.00
2022-10-31T11:16:41.248Z,20.80
2022-10-31T11:19:20.208Z,21.00
2022-10-31T11:21:53.625Z,21.10
2022-10-31T11:24:25.435Z,21.50
2022-10-31T11:26:56.993Z,21.60
2022-10-31T11:29:32.071Z,21.80
2022-10-31T11:32:03.442Z,21.90
2022-10-31T11:34:35.821Z,21.90
2022-10-31T11:37:11.566Z,21.90
2022-10-31T11:39:44.481Z,22.00
2022-10-31T11:42:14.413Z,22.10
2022-10-31T11:44:46.554Z,22.10
2022-10-31T11:47:19.276Z,22.20
2022-10-31T11:49:50.735Z,22.20
2022-10-31T11:52:25.179Z,22.20
2022-10-31T11:54:57.588Z,22.10
2022-10-31T11:57:31.416Z,22.10
2022-10-31T12:00:05.618Z,22.10
2022-10-31T12:02:43.593Z,22.10
2022-10-31T12:05:21.036Z,22.10
2022-10-31T12:07:50.344Z,22.20
2022-10-31T12:10:31.387Z,22.40
2022-10-31T12:13:11.260Z,22.50
2022-10-31T12:15:49.577Z,22.70
2022-10-31T12:18:45.482Z,22.80
2022-10-31T12:21:26.309Z,22.80
2022-10-31T12:24:07.642Z,22.90
2022-10-31T12:26:45.032Z,23.20
2022-10-31T12:29:31.313Z,23.40
2022-10-31T12:32:17.908Z,23.50
2022-10-31T12:35:03.012Z,23.40
2022-10-31T12:37:45.733Z,23.70
2022-10-31T12:40:31.937Z,24.30
2022-10-31T12:43:12.703Z,25.00
2022-10-31T12:45:58.780Z,25.60
2022-10-31T12:48:54.042Z,25.70
2022-10-31T12:51:35.715Z,25.90
2022-10-31T12:54:26.018Z,26.30
2022-10-31T12:57:05.880Z,26.60
2022-10-31T12:59:39.377Z,26.90
2022-10-31T13:02:19.312Z,27.20
2022-10-31T13:04:53.537Z,27.20
2022-10-31T13:07:32.814Z,27.80
2022-10-31T13:10:08.283Z,28.10
2022-10-31T13:12:37.853Z,27.80
2022-10-31T13:15:16.489Z,27.10
2022-10-31T13:17:47.861Z,26.40
2022-10-31T13:20:25.152Z,25.30
2022-10-31T13:23:23.365Z,24.20
2022-10-31T13:26:02.671Z,23.70
2022-10-31T13:28:38.934Z,23.40
2022-10-31T13:31:07.965Z,23.20
2022-10-31T13:33:41.864Z,22.90
2022-10-31T13:36:25.858Z,22.70
2022-10-31T13:38:59.917Z,22.70
2022-10-31T13:41:43.243Z,23.10
2022-10-31T13:44:17.307Z,23.20
2022-10-31T13:46:47.196Z,23.40
2022-10-31T13:49:39.524Z,23.40
2022-10-31T13:52:17.272Z,23.20
2022-10-31T13:54:47.870Z,23.40
2022-10-31T13:57:21.294Z,23.40
2022-10-31T13:59:53.769Z,23.20
2022-10-31T14:02:29.181Z,22.90
2022-10-31T14:05:06.250Z,22.80
2022-10-31T14:07:46.195Z,22.80
2022-10-31T14:10:25.489Z,22.80
2022-10-31T14:13:00.863Z,23.10
2022-10-31T14:15:31.531Z,23.70
2022-10-31T14:18:04.092Z,24.30
2022-10-31T14:20:41.292Z,24.40
2022-10-31T14:23:43.849Z,24.30
2022-10-31T14:26:41.541Z,23.80
2022-10-31T14:29:27.375Z,23.40
2022-10-31T14:32:12.006Z,23.30
2022-10-31T14:34:46.102Z,22.90
2022-10-31T14:37:31.559Z,22.50
2022-10-31T14:40:21.658Z,22.30
2022-10-31T14:43:23.297Z,22.10
2022-10-31T14:46:01.980Z,22.00
2022-10-31T14:48:54.934Z,21.90
2022-10-31T14:51:31.099Z,21.90
2022-10-31T14:54:03.625Z,21.90
2022-10-31T14:56:37.690Z,21.70
2022-10-31T14:59:11.444Z,21.60
2022-10-31T15:01:42.307Z,21.70
2022-10-31T15:04:25.062Z,21.70
2022-10-31T15:07:00.751Z,21.70
2022-10-31T15:09:32.390Z,21.60
2022-10-31T15:12:04.145Z,21.50
2022-10-31T15:14:34.099Z,21.30
2022-10-31T15:17:06.642Z,21.10
2022-10-31T15:19:37.880Z,21.10
2022-10-31T15:22:07.104Z,21.00
2022-10-31T15:24:38.856Z,20.80
2022-10-31T15:27:15.405Z,20.70
2022-10-31T15:29:51.912Z,20.60
2022-10-31T15:32:29.401Z,20.40
2022-10-31T15:35:02.246Z,20.40
2022-10-31T15:37:31.262Z,20.30
2022-10-31T15:40:09.696Z,20.10
2022-10-31T15:42:43.230Z,20.00
2022-10-31T15:45:21.448Z,19.90
2022-10-31T15:47:58.510Z,19.70
2022-10-31T15:50:33.574Z,19.60
2022-10-31T15:53:16.409Z,19.50
2022-10-31T15:55:54.873Z,19.40
2022-10-31T15:58:38.402Z,19.20
2022-10-31T16:01:21.720Z,19.20
2022-10-31T16:04:05.107Z,19.00
2022-10-31T16:06:46.595Z,18.80
2022-10-31T16:09:25.688Z,18.70
2022-10-31T16:11:58.863Z,18.50
2022-10-31T16:14:32.813Z,18.50
2022-10-31T16:17:04.935Z,18.30
2022-10-31T16:19:36.585Z,18.20
2022-10-31T16:22:08.502Z,18.30
2022-10-31T16:24:47.638Z,18.10
2022-10-31T16:27:30.022Z,18.00
2022-10-31T16:30:09.721Z,18.00
2022-10-31T16:33:00.222Z,18.00
2022-10-31T16:35:38.542Z,17.80
2022-10-31T16:38:46.116Z,17.80
2022-10-31T16:44:19.817Z,17.50
2022-10-31T16:46:49.904Z,17.40
2022-10-31T16:49:19.870Z,17.20
2022-10-31T16:51:48.428Z,17.30
2022-10-31T16:54:16.851Z,17.30
2022-10-31T16:56:45.379Z,17.10
2022-10-31T16:59:16.494Z,17.20
2022-10-31T17:01:49.315Z,17.00
2022-10-31T17:04:19.383Z,16.90
2022-10-31T17:06:48.027Z,16.90
2022-10-31T17:09:16.483Z,16.70
2022-10-31T17:11:49.648Z,16.70
2022-10-31T17:14:19.406Z,16.70
2022-10-31T17:16:47.893Z,16.60
2022-10-31T17:19:16.671Z,16.60
2022-10-31T17:21:46.589Z,16.60
2022-10-31T17:24:16.511Z,16.60
2022-10-31T17:26:44.899Z,16.70
2022-10-31T17:29:13.442Z,16.80
2022-10-31T17:31:42.003Z,16.90
2022-10-31T17:34:10.848Z,17.10
2022-10-31T17:36:39.461Z,17.20
2022-10-31T17:39:10.555Z,17.40
2022-10-31T17:41:39.020Z,17.50
2022-10-31T17:44:07.939Z,17.50
2022-10-31T17:46:36.317Z,17.50
2022-10-31T17:49:07.544Z,17.60
2022-10-31T17:51:36.305Z,17.70
2022-10-31T17:54:08.967Z,17.70
2022-10-31T17:56:39.225Z,17.80
2022-10-31T17:59:08.109Z,17.90
2022-10-31T18:01:36.865Z,17.90
2022-10-31T18:04:05.613Z,17.90
2022-10-31T18:06:35.026Z,18.00
2022-10-31T18:09:05.222Z,18.00
2022-10-31T18:11:33.878Z,18.00
2022-10-31T18:14:03.915Z,18.10
2022-10-31T18:16:32.334Z,18.20
2022-10-31T18:19:02.175Z,18.20
2022-10-31T18:21:30.986Z,18.20
2022-10-31T18:24:00.941Z,18.20
2022-10-31T18:26:29.843Z,18.10
2022-10-31T18:28:58.312Z,18.10
2022-10-31T18:31:28.277Z,18.00
2022-10-31T18:33:57.741Z,18.00
2022-10-31T18:36:26.839Z,18.00
2022-10-31T18:38:55.239Z,17.90
2022-10-31T18:41:23.684Z,17.80
2022-10-31T18:43:54.046Z,17.80
2022-10-31T18:46:22.462Z,17.80
2022-10-31T18:48:52.219Z,17.70
2022-10-31T18:51:20.905Z,17.70
2022-10-31T18:53:53.420Z,17.70
2022-10-31T18:56:22.085Z,17.80
2022-10-31T18:58:50.510Z,17.80
2022-10-31T19:01:21.197Z,17.80
2022-10-31T19:03:56.573Z,17.80
2022-10-31T19:06:25.420Z,17.70
2022-10-31T19:08:59.404Z,17.60
2022-10-31T19:11:28.108Z,17.50
2022-10-31T19:13:58.210Z,17.40
2022-10-31T19:16:26.505Z,17.40
2022-10-31T19:18:57.564Z,17.30
2022-10-31T19:21:26.238Z,17.20
2022-10-31T19:23:56.496Z,17.20
2022-10-31T19:26:26.054Z,17.10
2022-10-31T19:28:54.929Z,17.00
2022-10-31T19:31:23.451Z,17.00
2022-10-31T19:33:52.112Z,16.90
2022-10-31T19:36:22.629Z,16.90
2022-10-31T19:38:52.981Z,16.80
2022-10-31T19:41:23.252Z,16.90
2022-10-31T19:43:51.940Z,16.80
2022-10-31T19:46:33.854Z,16.80
2022-10-31T19:49:11.363Z,16.80
2022-10-31T19:51:41.484Z,16.80
2022-10-31T19:54:09.945Z,16.70
2022-10-31T19:56:38.361Z,16.60
2022-10-31T19:59:06.845Z,16.60
2022-10-31T20:01:35.709Z,16.70
2022-10-31T20:04:04.334Z,16.70
2022-10-31T20:06:35.078Z,16.70
2022-10-31T20:09:08.127Z,16.60
2022-10-31T20:11:38.108Z,16.60
2022-10-31T20:14:07.606Z,16.70
2022-10-31T20:16:36.212Z,16.70
2022-10-31T20:19:04.988Z,16.60
2022-10-31T20:21:36.755Z,16.70
2022-10-31T20:24:08.825Z,16.70
2022-10-31T20:26:38.264Z,16.70
2022-10-31T20:29:07.292Z,16.70
2022-10-31T20:31:37.935Z,16.70
2022-10-31T20:34:06.891Z,16.80
2022-10-31T20:36:36.934Z,16.90
2022-10-31T20:39:07.566Z,16.90
2022-10-31T20:41:39.562Z,16.90
2022-10-31T20:44:08.554Z,16.90
2022-10-31T20:46:37.304Z,16.80
2022-10-31T20:49:05.968Z,16.90
2022-10-31T20:51:34.771Z,16.90
2022-10-31T20:54:03.481Z,17.00
2022-10-31T20:56:33.772Z,17.00
2022-10-31T20:59:31.085Z,17.00
2022-10-31T21:02:02.114Z,17.10
2022-10-31T21:04:30.960Z,17.20
2022-10-31T21:06:59.700Z,17.20
2022-10-31T21:09:28.520Z,17.30
2022-10-31T21:11:58.778Z,17.30
2022-10-31T21:14:29.589Z,17.40
2022-10-31T21:16:58.472Z,17.40
2022-10-31T21:19:27.668Z,17.40
2022-10-31T21:22:07.528Z,17.40
2022-10-31T21:24:36.385Z,17.40
2022-10-31T21:27:09.982Z,17.40
2022-10-31T21:29:41.270Z,17.40
2022-10-31T21:32:10.159Z,17.40
2022-10-31T21:34:41.422Z,17.40
2022-10-31T21:37:10.205Z,17.30
2022-10-31T21:57:12.238Z,17.30
2022-10-31T21:59:45.969Z,17.40
2022-10-31T22:02:14.626Z,17.40
2022-10-31T22:04:44.275Z,17.30
2022-10-31T22:07:12.792Z,17.20
2022-10-31T22:09:41.898Z,17.10
2022-10-31T22:12:12.205Z,17.10
2022-10-31T22:17:10.513Z,17.00
2022-10-31T22:19:39.185Z,17.00
2022-10-31T22:22:07.676Z,16.90
2022-10-31T22:24:36.328Z,16.80
2022-10-31T22:27:04.824Z,16.70
2022-10-31T22:29:35.692Z,16.70
2022-10-31T22:32:04.226Z,16.70
2022-10-31T22:34:32.626Z,16.70
2022-10-31T22:37:02.278Z,16.70
2022-10-31T22:39:30.822Z,16.80
2022-10-31T22:41:59.460Z,16.80
2022-10-31T22:44:28.061Z,16.90
2022-10-31T22:46:58.670Z,16.90
2022-10-31T22:49:27.581Z,16.90
2022-10-31T22:51:59.863Z,16.90
2022-10-31T22:54:28.548Z,17.00
2022-10-31T22:56:57.149Z,17.10
2022-10-31T22:59:25.705Z,17.10
2022-10-31T23:01:54.608Z,17.10
2022-10-31T23:04:25.365Z,17.20
2022-10-31T23:06:54.045Z,17.20
2022-10-31T23:09:22.738Z,17.20
2022-10-31T23:11:51.489Z,17.30
2022-10-31T23:14:21.135Z,17.30
2022-10-31T23:16:53.788Z,17.30
2022-10-31T23:19:26.570Z,17.50
2022-10-31T23:21:57.774Z,17.50
2022-10-31T23:24:29.494Z,17.50
2022-10-31T23:27:10.725Z,17.60
2022-10-31T23:29:42.536Z,17.60
2022-10-31T23:32:13.953Z,17.60
2022-10-31T23:34:44.186Z,17.60
2022-10-31T23:37:13.344Z,17.60
2022-10-31T23:39:41.896Z,17.60
2022-10-31T23:42:14.016Z,17.50
2022-10-31T23:44:42.971Z,17.50
2022-10-31T23:47:11.647Z,17.50
2022-10-31T23:49:40.532Z,17.50
2022-10-31T23:52:11.220Z,17.50
2022-10-31T23:54:40.336Z,17.40
2022-10-31T23:57:09.631Z,17.30
2022-10-31T23:59:38.361Z,17.20
